This is the latest recevied weather packets stored in our database for station/object W2EH. If no packets are shown the sender has not sent any weather packets the latest 10 day(s).
| Time | Temp. | Humidity | Pressure | Rain* | Wind** | Luminosity | Snow |
|---|---|---|---|---|---|---|---|
| 1777917941 | 23.89° C | 64% | 1011.9 hPa | 0 mm | - | 906 W/m² | - |
| 1777917640 | 23.89° C | 63% | 1012.2 hPa | 0 mm | - | 430 W/m² | - |
| 1777917337 | 23.89° C | 67% | 1012.4 hPa | 0 mm | - | 370 W/m² | - |
| 1777917033 | 23.89° C | 64% | 1012.3 hPa | 0 mm | - | 201 W/m² | - |
| 1777916731 | 23.89° C | 65% | 1012.2 hPa | 0 mm | - | 355 W/m² | - |
| 1777916428 | 23.33° C | 67% | 1012.2 hPa | 0 mm | - | 241 W/m² | - |
| 1777916125 | 23.89° C | 66% | 1012.4 hPa | 0 mm | - | 198 W/m² | - |
| 1777915822 | 23.33° C | 66% | 1012.3 hPa | 0 mm | - | 191 W/m² | - |
| 1777915518 | 23.33° C | 66% | 1012.7 hPa | 0 mm | - | 260 W/m² | - |
| 1777915215 | 23.33° C | 65% | 1012.6 hPa | 0 mm | - | 185 W/m² | - |
| 1777914912 | 23.89° C | 64% | 1012.9 hPa | 0 mm | - | 213 W/m² | - |
| 1777914609 | 23.33° C | 65% | 1012.9 hPa | 0 mm | - | 237 W/m² | - |
| 1777914304 | 23.89° C | 64% | 1013.1 hPa | 0 mm | - | 143 W/m² | - |
| 1777914002 | 24.44° C | 63% | 1013 hPa | 0 mm | - | 175 W/m² | - |
| 1777913698 | 23.89° C | 64% | 1012.8 hPa | 0 mm | - | 290 W/m² | - |
| 1777913395 | 23.89° C | 63% | 1012.9 hPa | 0 mm | - | 201 W/m² | - |
| 1777913092 | 23.89° C | 64% | 1013.1 hPa | 0 mm | - | 184 W/m² | - |
| 1777912788 | 23.33° C | 66% | 1012.9 hPa | 0 mm | - | 211 W/m² | - |
| 1777912484 | 23.33° C | 65% | 1012.8 hPa | 0 mm | - | 149 W/m² | - |
| 1777912181 | 23.33° C | 66% | 1013.1 hPa | 0 mm | - | 110 W/m² | - |
| 1777911877 | 23.89° C | 65% | 1012.9 hPa | 0 mm | - | 163 W/m² | - |
| 1777911573 | 23.33° C | 66% | 1013 hPa | 0 mm | - | 136 W/m² | - |
| 1777911269 | 22.78° C | 67% | 1013.1 hPa | 0 mm | - | 262 W/m² | - |
| 1777910967 | 22.78° C | 67% | 1013.2 hPa | 0 mm | - | 124 W/m² | - |
| 1777910665 | 22.78° C | 64% | 1013.1 hPa | 0 mm | - | 119 W/m² | - |
* Rain latest hour (hover to see other rain measurements)
** Current wind speed in m/s (hover to see current wind gust speed)